25J weather

Cuthbert-Randolph Airport
Cuthbert, Georgia, United States

Public forecast

Using degrees Fahrenheit for public forecast. Weather courtesy of forecast.io.

Closest aviation weather report (METAR) to Cuthbert-Randolph Airport

Closest report is Early County Airport, 18.5 nm (34.3 km) S. Retrieved 2019/12/06 10:35 UTC (0 seconds ago):

KBIJ 061035Z AUTO 00000KT 10SM CLR 03/02 A3019 RMK AO2

Closest aviation forecast (TAF) to Cuthbert-Randolph Airport

Closest forecast is Southwest Georgia Regional Airport, 33.7 nm (62.4 km) ESE. Retrieved 2019/12/06 06:22 UTC (4 hours ago):

TAF KABY 060520Z 0606/0706 18003KT P6SM BKN250 FM061800 20006KT P6SM BKN100